Time;durP1;ratioP1;P1;durP2;ratioP2;P2;SDS_P1;SDS_P2;PMS_P1;PMS_P2;Temp;Humidity;BMP_temperature;BMP_pressure;BME280_temperature;BME280_humidity;BME280_pressure;Samples;Min_cycle;Max_cycle;Signal;HPM_P1;HPM_P2
2022/11/08 00:03:29;;;;;;;;;;;19.90;73.60;;;;;;4494027;31;19977;-71
2022/11/08 00:14:08;;;;;;;;;;;19.90;73.60;;;;;;4493798;31;20043;-71
2022/11/08 00:16:33;;;;;;;;;;;19.90;73.60;;;;;;4493200;31;19978;-70
2022/11/08 00:18:59;;;;;;;;;;;19.80;73.50;;;;;;4493571;31;20310;-71
2022/11/08 00:21:25;;;;;;;;;;;19.80;73.50;;;;;;4493367;31;19980;-71
2022/11/08 00:23:50;;;;;;;;;;;19.80;73.60;;;;;;4492250;31;20310;-70
2022/11/08 00:26:16;;;;;;;;;;;19.80;73.60;;;;;;4493561;31;20024;-72
2022/11/08 00:28:42;;;;;;;;;;;19.80;73.60;;;;;;4493477;31;20288;-70
2022/11/08 00:31:07;;;;;;;;;;;19.80;73.50;;;;;;4492600;31;19973;-71
2022/11/08 00:33:34;;;;;;;;;;;19.80;73.50;;;;;;4493133;31;19981;-70
2022/11/08 00:36:00;;;;;;;;;;;19.80;73.50;;;;;;4493378;31;19992;-70
2022/11/08 00:38:26;;;;;;;;;;;19.80;73.60;;;;;;4493404;31;20021;-71
2022/11/08 00:40:52;;;;;;;;;;;19.80;73.60;;;;;;4493321;31;19993;-70
2022/11/08 00:43:17;;;;;;;;;;;19.70;73.50;;;;;;4493060;31;20088;-71
2022/11/08 00:45:43;;;;;;;;;;;19.70;73.60;;;;;;4493187;31;19980;-71
2022/11/08 00:48:09;;;;;;;;;;;19.70;73.60;;;;;;4492998;31;19973;-70
2022/11/08 00:50:38;;;;;;;;;;;19.70;73.60;;;;;;4492090;31;19968;-71
2022/11/08 00:53:04;;;;;;;;;;;19.70;73.60;;;;;;4492700;31;19993;-71
2022/11/08 00:55:29;;;;;;;;;;;19.70;73.60;;;;;;4492926;31;20295;-71
2022/11/08 00:57:55;;;;;;;;;;;19.70;73.50;;;;;;4492840;31;19965;-71
2022/11/08 01:00:21;;;;;;;;;;;19.70;73.50;;;;;;4493147;31;19982;-71
2022/11/08 01:02:46;;;;;;;;;;;19.70;73.60;;;;;;4492942;31;19973;-71
2022/11/08 01:05:12;;;;;;;;;;;19.70;73.50;;;;;;4493175;31;19973;-71
2022/11/08 01:07:38;;;;;;;;;;;19.70;73.60;;;;;;4492982;31;20107;-71
2022/11/08 01:10:04;;;;;;;;;;;19.60;73.50;;;;;;4492983;31;20448;-70
2022/11/08 01:12:30;;;;;;;;;;;19.60;73.50;;;;;;4492971;31;20036;-70
2022/11/08 01:14:55;;;;;;;;;;;19.60;73.50;;;;;;4492764;31;20139;-72
2022/11/08 01:17:21;;;;;;;;;;;19.60;73.50;;;;;;4493051;31;20315;-70
2022/11/08 01:19:47;;;;;;;;;;;19.60;73.40;;;;;;4492779;31;19965;-70
2022/11/08 01:22:12;;;;;;;;;;;19.60;73.40;;;;;;4492824;31;20051;-70
2022/11/08 01:24:38;;;;;;;;;;;19.60;73.40;;;;;;4492757;31;19962;-70
2022/11/08 01:27:04;;;;;;;;;;;19.60;73.40;;;;;;4492971;31;19962;-70
2022/11/08 01:29:29;;;;;;;;;;;19.60;73.40;;;;;;4492723;31;20489;-70
2022/11/08 01:31:55;;;;;;;;;;;19.60;73.40;;;;;;4492746;31;19980;-70
2022/11/08 01:34:21;;;;;;;;;;;19.60;73.40;;;;;;4492800;31;19981;-71
2022/11/08 01:36:47;;;;;;;;;;;19.60;73.40;;;;;;4492588;31;20394;-71
2022/11/08 01:39:13;;;;;;;;;;;19.60;73.50;;;;;;4492437;32;19965;-72
2022/11/08 01:41:38;;;;;;;;;;;19.60;73.50;;;;;;4492524;32;19982;-70
2022/11/08 01:44:04;;;;;;;;;;;19.60;73.50;;;;;;4492370;32;20062;-70
2022/11/08 01:46:34;;;;;;;;;;;19.60;73.60;;;;;;4492611;32;19976;-70
2022/11/08 01:49:09;;;;;;;;;;;19.60;73.50;;;;;;4493145;32;19973;-71
2022/11/08 01:51:37;;;;;;;;;;;19.60;73.50;;;;;;4492453;32;19985;-71
2022/11/08 01:54:06;;;;;;;;;;;19.60;73.50;;;;;;4492254;32;19992;-71
2022/11/08 01:56:33;;;;;;;;;;;19.60;73.50;;;;;;4492495;32;19985;-70
2022/11/08 01:59:00;;;;;;;;;;;19.60;73.50;;;;;;4492758;32;20288;-70
2022/11/08 02:01:26;;;;;;;;;;;19.50;73.40;;;;;;4492239;32;20056;-71
2022/11/08 02:03:52;;;;;;;;;;;19.60;73.50;;;;;;4478042;32;20111;-70
2022/11/08 02:06:18;;;;;;;;;;;19.50;73.40;;;;;;4492478;32;19977;-70
2022/11/08 02:08:44;;;;;;;;;;;19.50;73.40;;;;;;4492461;32;20407;-70
2022/11/08 02:11:12;;;;;;;;;;;19.50;73.40;;;;;;4492501;32;19977;-70
2022/11/08 02:13:38;;;;;;;;;;;19.50;73.40;;;;;;4492575;32;20041;-70
2022/11/08 02:16:10;;;;;;;;;;;19.50;73.40;;;;;;4492452;32;19973;-70
2022/11/08 02:18:36;;;;;;;;;;;19.50;73.40;;;;;;4492639;32;19991;-70
2022/11/08 02:21:01;;;;;;;;;;;19.50;73.40;;;;;;4492080;32;20396;-70
2022/11/08 02:23:45;;;;;;;;;;;19.50;73.40;;;;;;4492551;32;20092;-71
2022/11/08 02:26:11;;;;;;;;;;;19.50;73.30;;;;;;4492056;32;19966;-70
2022/11/08 02:28:41;;;;;;;;;;;19.50;73.40;;;;;;4477894;32;19988;-71
2022/11/08 02:31:10;;;;;;;;;;;19.50;73.40;;;;;;4492331;32;20093;-70
2022/11/08 02:33:36;;;;;;;;;;;19.50;73.30;;;;;;4492302;32;20502;-70
2022/11/08 02:36:03;;;;;;;;;;;19.50;73.40;;;;;;4492084;32;19988;-71
2022/11/08 02:38:30;;;;;;;;;;;19.50;73.40;;;;;;4492485;31;20430;-71
2022/11/08 02:40:56;;;;;;;;;;;19.40;73.30;;;;;;4495176;31;20406;-71
2022/11/08 02:43:22;;;;;;;;;;;19.40;73.30;;;;;;4495168;31;19973;-70
2022/11/08 02:45:48;;;;;;;;;;;19.40;74.20;;;;;;4495276;31;19989;-70
2022/11/08 02:48:14;;;;;;;;;;;19.40;73.40;;;;;;4495266;31;19985;-70
2022/11/08 02:50:40;;;;;;;;;;;19.40;73.30;;;;;;4480639;31;19984;-70
2022/11/08 02:53:06;;;;;;;;;;;19.40;73.30;;;;;;4494995;31;19985;-70
2022/11/08 02:55:33;;;;;;;;;;;19.40;73.30;;;;;;4494893;31;20395;-71
2022/11/08 02:57:58;;;;;;;;;;;19.40;73.30;;;;;;4494876;31;19969;-71
2022/11/08 03:00:24;;;;;;;;;;;19.40;73.30;;;;;;4494790;31;19992;-70
2022/11/08 03:02:53;;;;;;;;;;;19.40;73.40;;;;;;4494690;31;19970;-70
2022/11/08 03:05:20;;;;;;;;;;;19.40;73.30;;;;;;4494755;31;19985;-71
2022/11/08 03:07:46;;;;;;;;;;;19.40;73.30;;;;;;4494384;31;19989;-71
2022/11/08 03:10:12;;;;;;;;;;;19.40;73.30;;;;;;4494757;31;20377;-70
2022/11/08 03:12:38;;;;;;;;;;;19.40;73.30;;;;;;4494607;31;20124;-71
2022/11/08 03:15:04;;;;;;;;;;;19.40;73.30;;;;;;4494579;31;20091;-71
2022/11/08 03:17:30;;;;;;;;;;;19.30;73.20;;;;;;4494680;31;20166;-70
2022/11/08 03:19:56;;;;;;;;;;;19.30;73.20;;;;;;4494551;31;19978;-70
2022/11/08 03:22:22;;;;;;;;;;;19.30;73.20;;;;;;4494251;31;19991;-71
2022/11/08 03:24:47;;;;;;;;;;;19.30;73.20;;;;;;4494722;31;20288;-71
2022/11/08 03:27:14;;;;;;;;;;;19.30;73.20;;;;;;4494707;31;20299;-71
2022/11/08 03:29:40;;;;;;;;;;;19.30;73.20;;;;;;4494350;31;20048;-70
2022/11/08 03:32:05;;;;;;;;;;;19.30;73.20;;;;;;4494105;31;19985;-70
2022/11/08 03:34:31;;;;;;;;;;;19.30;73.20;;;;;;4494398;31;19981;-70
2022/11/08 03:36:58;;;;;;;;;;;19.30;73.20;;;;;;4494289;31;20007;-70
2022/11/08 03:39:23;;;;;;;;;;;19.30;73.20;;;;;;4493979;31;20371;-71
2022/11/08 03:41:49;;;;;;;;;;;19.30;73.20;;;;;;4494227;31;19969;-71
2022/11/08 03:44:15;;;;;;;;;;;19.30;73.20;;;;;;4493998;31;19966;-70
2022/11/08 03:46:40;;;;;;;;;;;19.30;73.20;;;;;;4494162;31;19965;-71
2022/11/08 03:49:06;;;;;;;;;;;19.30;73.10;;;;;;4494131;31;20072;-70
2022/11/08 03:51:32;;;;;;;;;;;19.30;73.20;;;;;;4493020;31;20082;-71
2022/11/08 03:53:57;;;;;;;;;;;19.20;73.20;;;;;;4480236;31;20004;-70
2022/11/08 03:56:23;;;;;;;;;;;19.20;73.20;;;;;;4494212;31;19962;-70
2022/11/08 03:58:49;;;;;;;;;;;19.20;73.20;;;;;;4493960;31;19961;-71
2022/11/08 04:01:15;;;;;;;;;;;19.20;73.10;;;;;;4493944;31;20017;-70
2022/11/08 04:03:40;;;;;;;;;;;19.20;73.10;;;;;;4493836;31;19962;-71
2022/11/08 04:06:07;;;;;;;;;;;19.20;73.10;;;;;;4493932;31;20009;-70
2022/11/08 04:08:32;;;;;;;;;;;19.20;73.10;;;;;;4493851;31;19980;-72
2022/11/08 04:15:13;;;;;;;;;;;19.20;73.00;;;;;;4493861;31;19969;-71
2022/11/08 04:16:31;;;;;;;;;;;19.20;73.10;;;;;;4493725;31;19985;-70
2022/11/08 04:21:43;;;;;;;;;;;19.20;73.10;;;;;;4493926;31;19973;-70
2022/11/08 04:24:09;;;;;;;;;;;19.20;73.00;;;;;;4493473;31;20037;-71
2022/11/08 04:26:34;;;;;;;;;;;19.20;73.00;;;;;;4493288;31;20398;-71
2022/11/08 04:29:02;;;;;;;;;;;19.20;73.00;;;;;;4493624;31;20452;-70
2022/11/08 04:31:27;;;;;;;;;;;19.20;73.00;;;;;;4493474;31;20045;-71
2022/11/08 04:33:53;;;;;;;;;;;19.10;72.90;;;;;;4493422;31;19966;-71
2022/11/08 04:36:19;;;;;;;;;;;19.10;73.00;;;;;;4493314;31;20103;-71
2022/11/08 04:38:49;;;;;;;;;;;19.10;72.90;;;;;;4493589;31;19988;-70
2022/11/08 04:41:15;;;;;;;;;;;19.10;73.00;;;;;;4493035;31;20107;-71
2022/11/08 04:43:41;;;;;;;;;;;19.10;72.90;;;;;;4493151;31;20390;-70
2022/11/08 04:46:08;;;;;;;;;;;19.10;72.90;;;;;;4493245;31;20001;-69
2022/11/08 04:48:34;;;;;;;;;;;19.10;72.90;;;;;;4493555;31;20391;-71
2022/11/08 04:51:04;;;;;;;;;;;19.10;72.90;;;;;;4492961;31;20023;-69
2022/11/08 04:53:30;;;;;;;;;;;19.10;72.90;;;;;;4489765;31;19985;-70
2022/11/08 04:56:02;;;;;;;;;;;19.10;72.90;;;;;;4493121;31;20043;-70
2022/11/08 04:58:31;;;;;;;;;;;19.10;72.90;;;;;;4492016;31;20059;-70
2022/11/08 05:01:01;;;;;;;;;;;19.10;72.90;;;;;;4493101;31;20028;-70
2022/11/08 05:03:27;;;;;;;;;;;19.10;72.90;;;;;;4493193;31;20017;-70
2022/11/08 05:05:53;;;;;;;;;;;19.10;72.90;;;;;;4493068;31;20409;-70
2022/11/08 05:08:18;;;;;;;;;;;19.10;72.90;;;;;;4492957;31;19984;-71
2022/11/08 05:10:44;;;;;;;;;;;19.00;72.90;;;;;;4492825;31;19966;-70
2022/11/08 05:13:10;;;;;;;;;;;19.10;72.90;;;;;;4492885;31;19974;-70
2022/11/08 05:15:35;;;;;;;;;;;19.00;72.80;;;;;;4493096;31;19974;-70
2022/11/08 05:18:01;;;;;;;;;;;19.00;72.80;;;;;;4491459;31;20385;-70
2022/11/08 05:23:23;;;;;;;;;;;19.00;72.80;;;;;;4493124;31;20102;-70
2022/11/08 05:25:49;;;;;;;;;;;19.00;72.80;;;;;;4493072;31;19984;-71
2022/11/08 05:28:15;;;;;;;;;;;19.00;72.80;;;;;;4492820;31;20103;-70
2022/11/08 05:30:41;;;;;;;;;;;19.00;72.80;;;;;;4492486;31;19978;-71
2022/11/08 05:33:06;;;;;;;;;;;19.00;72.80;;;;;;4492754;31;20088;-70
2022/11/08 05:35:32;;;;;;;;;;;19.00;72.80;;;;;;4492905;31;20036;-70
2022/11/08 05:37:58;;;;;;;;;;;19.00;72.80;;;;;;4491491;31;20048;-70
2022/11/08 05:40:25;;;;;;;;;;;19.00;72.80;;;;;;4492678;32;19973;-71
2022/11/08 05:42:53;;;;;;;;;;;19.00;72.80;;;;;;4492783;32;20426;-70
2022/11/08 05:45:19;;;;;;;;;;;19.00;72.80;;;;;;4492256;32;19989;-71
2022/11/08 05:47:45;;;;;;;;;;;19.00;72.80;;;;;;4492544;31;19962;-71
2022/11/08 05:50:11;;;;;;;;;;;19.00;72.80;;;;;;4492826;31;19969;-70
2022/11/08 05:52:37;;;;;;;;;;;19.00;72.80;;;;;;4492041;31;20001;-70
2022/11/08 05:55:03;;;;;;;;;;;19.00;72.80;;;;;;4492489;32;19976;-70
2022/11/08 05:57:29;;;;;;;;;;;18.90;72.70;;;;;;4478368;32;19974;-70
2022/11/08 05:59:54;;;;;;;;;;;18.90;72.70;;;;;;4492532;32;19973;-70
2022/11/08 06:02:20;;;;;;;;;;;18.90;72.70;;;;;;4492532;32;19962;-71
2022/11/08 06:04:46;;;;;;;;;;;18.90;72.70;;;;;;4492145;32;19980;-70
2022/11/08 06:07:11;;;;;;;;;;;19.00;72.80;;;;;;4492584;32;20155;-71
2022/11/08 06:09:38;;;;;;;;;;;18.90;72.70;;;;;;4492354;32;20131;-71
2022/11/08 06:12:04;;;;;;;;;;;18.90;72.70;;;;;;4492421;32;20028;-71
2022/11/08 06:14:30;;;;;;;;;;;18.90;72.70;;;;;;4493775;31;20393;-70
2022/11/08 06:16:56;;;;;;;;;;;18.90;72.70;;;;;;4495661;31;20415;-71
2022/11/08 06:19:22;;;;;;;;;;;18.90;72.90;;;;;;4495370;31;20407;-71
2022/11/08 06:21:47;;;;;;;;;;;18.90;72.70;;;;;;4495218;31;20033;-71
2022/11/08 06:24:16;;;;;;;;;;;18.90;72.40;;;;;;4495273;31;19962;-71
2022/11/08 06:26:42;;;;;;;;;;;18.90;72.60;;;;;;4495365;31;20327;-71
2022/11/08 06:29:08;;;;;;;;;;;18.90;72.50;;;;;;4495354;31;20028;-71
2022/11/08 06:31:34;;;;;;;;;;;18.90;72.60;;;;;;4495350;31;19969;-71
2022/11/08 06:34:00;;;;;;;;;;;18.90;72.90;;;;;;4494946;31;19989;-71
2022/11/08 06:36:26;;;;;;;;;;;18.90;72.80;;;;;;4494842;31;19981;-71
2022/11/08 06:38:55;;;;;;;;;;;18.90;72.90;;;;;;4494887;31;19984;-71
2022/11/08 06:41:21;;;;;;;;;;;18.90;73.00;;;;;;4481030;31;19996;-71
2022/11/08 06:43:47;;;;;;;;;;;18.90;73.20;;;;;;4495268;31;20014;-71
2022/11/08 06:46:14;;;;;;;;;;;19.00;73.40;;;;;;4495173;31;19969;-71
2022/11/08 06:48:39;;;;;;;;;;;19.00;73.30;;;;;;4495021;31;20377;-71
2022/11/08 06:51:05;;;;;;;;;;;19.10;73.00;;;;;;4495242;31;19985;-70
2022/11/08 06:53:31;;;;;;;;;;;19.10;72.60;;;;;;4494974;31;19977;-71
2022/11/08 06:56:00;;;;;;;;;;;19.20;72.50;;;;;;4494965;31;19999;-71
2022/11/08 06:58:26;;;;;;;;;;;19.20;72.40;;;;;;4495224;31;20026;-71
2022/11/08 07:00:51;;;;;;;;;;;19.30;72.20;;;;;;4494971;31;19981;-71
2022/11/08 07:03:17;;;;;;;;;;;19.40;72.00;;;;;;4495109;31;20037;-71
2022/11/08 07:05:43;;;;;;;;;;;19.50;71.70;;;;;;4480470;31;19983;-72
2022/11/08 07:08:09;;;;;;;;;;;19.60;71.60;;;;;;4494758;31;20103;-71
2022/11/08 07:10:35;;;;;;;;;;;19.70;71.30;;;;;;4495234;31;20158;-72
2022/11/08 07:13:09;;;;;;;;;;;19.70;71.10;;;;;;4495055;31;19989;-71
2022/11/08 07:15:35;;;;;;;;;;;19.80;70.90;;;;;;4494665;31;20062;-73
2022/11/08 07:18:01;;;;;;;;;;;19.90;70.70;;;;;;4494670;31;19981;-71
2022/11/08 07:20:27;;;;;;;;;;;20.00;70.60;;;;;;4494641;31;20039;-70
2022/11/08 07:22:53;;;;;;;;;;;20.10;70.40;;;;;;4494859;31;20453;-70
2022/11/08 07:25:19;;;;;;;;;;;20.20;70.20;;;;;;4494499;31;20083;-71
2022/11/08 07:27:44;;;;;;;;;;;20.20;70.00;;;;;;4494424;31;20162;-71
2022/11/08 07:30:10;;;;;;;;;;;20.20;69.80;;;;;;4494358;31;20021;-70
2022/11/08 07:32:36;;;;;;;;;;;20.30;69.70;;;;;;4494647;31;20318;-71
2022/11/08 07:35:02;;;;;;;;;;;20.30;69.50;;;;;;4494577;31;20092;-70
2022/11/08 07:37:28;;;;;;;;;;;20.40;69.40;;;;;;4494265;31;19996;-71
2022/11/08 07:39:54;;;;;;;;;;;20.40;69.20;;;;;;4494092;31;20381;-71
2022/11/08 07:42:20;;;;;;;;;;;20.40;69.20;;;;;;4494250;31;19974;-72
2022/11/08 07:44:46;;;;;;;;;;;20.40;69.10;;;;;;4494026;31;19981;-72
2022/11/08 07:47:11;;;;;;;;;;;20.40;69.20;;;;;;4494170;31;19976;-70
2022/11/08 07:49:37;;;;;;;;;;;20.40;69.20;;;;;;4493835;31;20123;-70
2022/11/08 07:52:03;;;;;;;;;;;20.30;69.30;;;;;;4494079;31;20020;-70
2022/11/08 07:54:29;;;;;;;;;;;20.30;69.80;;;;;;4493708;31;19957;-70
2022/11/08 07:56:54;;;;;;;;;;;20.30;70.20;;;;;;4493942;31;20024;-70
2022/11/08 07:59:20;;;;;;;;;;;20.20;70.30;;;;;;4479763;31;20027;-71
2022/11/08 08:01:45;;;;;;;;;;;20.20;70.50;;;;;;4479750;31;19965;-71
2022/11/08 08:04:11;;;;;;;;;;;20.10;70.60;;;;;;4493763;31;20089;-72
2022/11/08 08:06:37;;;;;;;;;;;20.10;70.80;;;;;;4493820;31;20060;-71
2022/11/08 08:09:03;;;;;;;;;;;20.00;71.70;;;;;;4493756;31;19985;-71
2022/11/08 08:11:29;;;;;;;;;;;20.00;70.80;;;;;;4493752;31;20013;-70
2022/11/08 08:13:55;;;;;;;;;;;19.90;70.80;;;;;;4493689;31;20000;-70
2022/11/08 08:16:21;;;;;;;;;;;19.80;70.50;;;;;;4493457;31;20055;-70
2022/11/08 08:18:49;;;;;;;;;;;19.80;70.80;;;;;;4494087;31;19989;-70
2022/11/08 08:21:15;;;;;;;;;;;19.80;71.00;;;;;;4493672;31;19986;-70
2022/11/08 08:23:40;;;;;;;;;;;19.70;70.90;;;;;;4493485;31;20419;-71
2022/11/08 08:26:06;;;;;;;;;;;19.70;70.90;;;;;;4493512;31;20382;-70
2022/11/08 08:28:32;;;;;;;;;;;19.70;71.00;;;;;;4493751;31;20284;-70
2022/11/08 08:30:58;;;;;;;;;;;19.60;70.70;;;;;;4493277;31;20005;-70
2022/11/08 08:33:23;;;;;;;;;;;19.60;70.60;;;;;;4493675;31;19962;-70
2022/11/08 08:35:51;;;;;;;;;;;19.60;69.50;;;;;;4493052;31;19970;-70
2022/11/08 08:38:16;;;;;;;;;;;19.50;69.00;;;;;;4492927;31;19973;-70
2022/11/08 08:40:42;;;;;;;;;;;19.50;68.00;;;;;;4492993;31;19992;-68
2022/11/08 08:43:09;;;;;;;;;;;19.40;68.20;;;;;;4493447;31;19986;-68
2022/11/08 08:45:35;;;;;;;;;;;19.40;67.00;;;;;;4493320;31;19958;-68
2022/11/08 08:48:00;;;;;;;;;;;19.30;66.10;;;;;;4493391;31;20391;-68
2022/11/08 08:50:27;;;;;;;;;;;19.20;65.40;;;;;;4493378;31;20015;-68
2022/11/08 08:53:02;;;;;;;;;;;19.20;65.80;;;;;;4492760;31;19981;-70
2022/11/08 08:55:28;;;;;;;;;;;19.20;65.70;;;;;;4493142;31;20024;-70
2022/11/08 08:57:54;;;;;;;;;;;19.20;65.20;;;;;;4493624;31;19969;-69
2022/11/08 09:00:21;;;;;;;;;;;19.10;65.50;;;;;;4478622;31;20429;-70
2022/11/08 09:02:46;;;;;;;;;;;19.10;65.70;;;;;;4493173;31;19992;-70
2022/11/08 09:05:13;;;;;;;;;;;19.10;65.50;;;;;;4492686;31;19974;-70
2022/11/08 09:07:38;;;;;;;;;;;19.00;65.10;;;;;;4493217;31;20123;-72
2022/11/08 09:10:04;;;;;;;;;;;19.00;65.10;;;;;;4493024;31;19961;-71
2022/11/08 09:12:30;;;;;;;;;;;19.00;65.00;;;;;;4493098;31;19981;-70
2022/11/08 09:14:56;;;;;;;;;;;18.90;65.00;;;;;;4492810;31;19981;-70
2022/11/08 09:17:22;;;;;;;;;;;18.90;64.20;;;;;;4492841;31;19972;-71
2022/11/08 09:19:48;;;;;;;;;;;18.80;63.80;;;;;;4492545;31;19997;-72
2022/11/08 09:22:13;;;;;;;;;;;18.80;64.90;;;;;;4492770;31;20047;-71
2022/11/08 09:24:39;;;;;;;;;;;18.80;65.00;;;;;;4492695;31;19980;-70
2022/11/08 09:27:04;;;;;;;;;;;18.80;65.30;;;;;;4492963;31;20391;-71
2022/11/08 09:29:30;;;;;;;;;;;18.80;65.70;;;;;;4492969;31;20479;-72
2022/11/08 09:31:56;;;;;;;;;;;18.80;66.00;;;;;;4492675;31;20017;-71
2022/11/08 09:34:22;;;;;;;;;;;18.80;66.10;;;;;;4492864;31;19981;-71
2022/11/08 09:36:48;;;;;;;;;;;18.90;66.10;;;;;;4492628;31;20012;-70
2022/11/08 09:39:13;;;;;;;;;;;18.90;66.30;;;;;;4492595;31;19965;-71
2022/11/08 09:41:39;;;;;;;;;;;18.90;66.40;;;;;;4492577;32;20414;-71
2022/11/08 09:44:20;;;;;;;;;;;18.90;66.20;;;;;;4492489;32;19981;-71
2022/11/08 09:46:45;;;;;;;;;;;18.80;66.10;;;;;;4492947;32;20477;-71
2022/11/08 09:49:23;;;;;;;;;;;18.90;66.30;;;;;;4493547;31;19970;-71
2022/11/08 09:51:48;;;;;;;;;;;18.80;66.30;;;;;;4496083;31;20032;-71
2022/11/08 09:54:26;;;;;;;;;;;18.80;66.40;;;;;;4496162;31;20021;-70
2022/11/08 09:56:54;;;;;;;;;;;18.90;66.50;;;;;;4495967;31;19973;-72
2022/11/08 09:59:41;;;;;;;;;;;18.90;66.70;;;;;;4494569;31;20000;-71
2022/11/08 10:02:21;;;;;;;;;;;18.80;66.80;;;;;;4495224;31;19992;-70
2022/11/08 10:05:08;;;;;;;;;;;18.80;66.90;;;;;;4495516;31;20091;-70
2022/11/08 10:07:33;;;;;;;;;;;18.80;67.00;;;;;;4495942;31;19989;-70
2022/11/08 10:10:02;;;;;;;;;;;18.80;67.00;;;;;;4495616;31;20046;-70
2022/11/08 10:12:46;;;;;;;;;;;18.80;67.20;;;;;;4495183;31;20009;-70
2022/11/08 10:15:31;;;;;;;;;;;18.80;67.30;;;;;;4495021;31;20092;-74
2022/11/08 10:18:15;;;;;;;;;;;18.90;67.60;;;;;;4495351;31;19992;-73
2022/11/08 10:20:44;;;;;;;;;;;18.80;67.50;;;;;;4495021;31;19981;-71
2022/11/08 10:23:13;;;;;;;;;;;18.90;67.70;;;;;;4495229;31;19977;-71
2022/11/08 10:25:44;;;;;;;;;;;18.80;67.60;;;;;;4495019;31;20028;-71
2022/11/08 10:28:15;;;;;;;;;;;18.80;68.60;;;;;;4495328;31;20387;-71
2022/11/08 10:30:41;;;;;;;;;;;18.90;67.90;;;;;;4495191;31;20016;-71
2022/11/08 10:33:18;;;;;;;;;;;18.90;67.90;;;;;;4495415;31;19978;-71
2022/11/08 10:35:51;;;;;;;;;;;18.80;67.90;;;;;;4495318;31;20441;-71
2022/11/08 10:38:18;;;;;;;;;;;18.80;68.10;;;;;;4495076;31;20300;-71
2022/11/08 10:40:47;;;;;;;;;;;18.80;68.20;;;;;;4495018;31;20444;-71
2022/11/08 10:43:33;;;;;;;;;;;18.80;68.30;;;;;;4480761;31;20387;-70
2022/11/08 10:46:00;;;;;;;;;;;18.90;68.50;;;;;;4494989;31;20028;-71
2022/11/08 10:48:26;;;;;;;;;;;18.90;68.60;;;;;;4494951;31;20393;-71
2022/11/08 10:50:51;;;;;;;;;;;18.90;68.80;;;;;;4494849;31;20000;-71
2022/11/08 10:53:25;;;;;;;;;;;19.00;69.00;;;;;;4494799;31;20371;-71
2022/11/08 10:55:51;;;;;;;;;;;19.10;69.10;;;;;;4495223;31;19982;-71
2022/11/08 10:58:29;;;;;;;;;;;19.20;68.80;;;;;;4495097;31;19988;-71
2022/11/08 11:01:00;;;;;;;;;;;19.30;68.40;;;;;;4494248;31;19974;-71
2022/11/08 11:03:29;;;;;;;;;;;19.40;68.10;;;;;;4494710;31;19977;-71
2022/11/08 11:05:59;;;;;;;;;;;19.50;67.70;;;;;;4494714;31;20472;-71
2022/11/08 11:08:25;;;;;;;;;;;19.70;67.40;;;;;;4494643;31;19978;-71
2022/11/08 11:10:50;;;;;;;;;;;19.80;67.00;;;;;;4494531;31;19988;-71
2022/11/08 11:13:19;;;;;;;;;;;19.90;66.60;;;;;;4494627;31;19974;-71
2022/11/08 11:15:52;;;;;;;;;;;20.10;66.30;;;;;;4494654;31;20067;-71
2022/11/08 11:18:34;;;;;;;;;;;20.20;66.00;;;;;;4494748;31;20010;-71
2022/11/08 11:21:05;;;;;;;;;;;20.20;65.80;;;;;;4494349;31;19970;-71
2022/11/08 11:23:38;;;;;;;;;;;20.30;65.60;;;;;;4494078;31;19989;-71
2022/11/08 11:26:05;;;;;;;;;;;20.40;65.40;;;;;;4494587;31;20326;-71
2022/11/08 11:28:31;;;;;;;;;;;20.50;66.20;;;;;;4494350;31;19988;-71
2022/11/08 11:31:00;;;;;;;;;;;20.50;65.10;;;;;;4493990;31;19977;-71
2022/11/08 11:33:28;;;;;;;;;;;20.60;65.00;;;;;;4494116;31;20107;-71
2022/11/08 11:35:56;;;;;;;;;;;20.60;64.90;;;;;;4494273;31;20104;-71
2022/11/08 11:38:41;;;;;;;;;;;20.70;64.80;;;;;;4494286;31;20368;-71
2022/11/08 11:41:17;;;;;;;;;;;20.80;64.60;;;;;;4494227;31;19965;-71
2022/11/08 11:43:46;;;;;;;;;;;20.80;64.60;;;;;;4493837;31;20031;-71
2022/11/08 11:46:19;;;;;;;;;;;20.90;64.50;;;;;;4494232;31;19977;-72
2022/11/08 11:48:46;;;;;;;;;;;20.90;64.40;;;;;;4494054;31;19992;-72
2022/11/08 11:51:12;;;;;;;;;;;21.00;64.40;;;;;;4494170;31;19981;-71
2022/11/08 11:53:38;;;;;;;;;;;21.00;64.40;;;;;;4493940;31;20009;-71
2022/11/08 11:56:07;;;;;;;;;;;21.00;64.20;;;;;;4493977;31;20005;-71
2022/11/08 11:58:51;;;;;;;;;;;21.10;64.20;;;;;;4493885;31;20457;-71
2022/11/08 12:01:17;;;;;;;;;;;21.10;64.10;;;;;;4493849;31;20513;-70
2022/11/08 12:03:49;;;;;;;;;;;21.10;64.10;;;;;;4493894;31;19973;-71
2022/11/08 12:06:33;;;;;;;;;;;21.20;64.10;;;;;;4493870;31;19978;-72
2022/11/08 12:08:59;;;;;;;;;;;21.20;64.00;;;;;;4493813;31;19977;-71
2022/11/08 12:11:34;;;;;;;;;;;21.20;64.00;;;;;;4492877;31;20044;-71
2022/11/08 12:14:18;;;;;;;;;;;21.30;64.00;;;;;;4479406;31;19985;-71
2022/11/08 12:16:51;;;;;;;;;;;21.30;63.90;;;;;;4493754;31;19989;-71
2022/11/08 12:19:29;;;;;;;;;;;21.30;63.80;;;;;;4493812;31;20391;-71
2022/11/08 12:22:00;;;;;;;;;;;21.30;63.80;;;;;;4493304;31;19988;-71
2022/11/08 12:24:35;;;;;;;;;;;21.30;63.70;;;;;;4493520;31;20318;-71
2022/11/08 12:27:03;;;;;;;;;;;21.40;63.80;;;;;;4493350;31;20054;-71
2022/11/08 12:29:42;;;;;;;;;;;21.40;63.70;;;;;;4493791;31;20154;-71
2022/11/08 12:32:17;;;;;;;;;;;21.40;63.70;;;;;;4493688;31;19965;-71
2022/11/08 12:34:48;;;;;;;;;;;21.40;63.80;;;;;;4479516;31;20400;-71
2022/11/08 12:37:16;;;;;;;;;;;21.40;63.80;;;;;;4479318;31;20390;-71
2022/11/08 12:39:51;;;;;;;;;;;21.40;63.90;;;;;;4493321;31;19985;-72
2022/11/08 12:42:41;;;;;;;;;;;21.30;64.00;;;;;;4493097;31;20030;-72
2022/11/08 12:45:25;;;;;;;;;;;21.30;64.20;;;;;;4493540;31;20318;-72
2022/11/08 12:47:51;;;;;;;;;;;21.20;64.20;;;;;;4493204;31;19982;-71
2022/11/08 12:50:35;;;;;;;;;;;21.20;64.40;;;;;;4493143;31;19980;-71
2022/11/08 12:53:01;;;;;;;;;;;21.20;64.50;;;;;;4492860;31;20290;-71
2022/11/08 12:55:36;;;;;;;;;;;21.10;64.50;;;;;;4493124;31;20386;-71
2022/11/08 12:58:11;;;;;;;;;;;21.10;64.70;;;;;;4493078;31;20410;-70
2022/11/08 13:00:39;;;;;;;;;;;21.10;64.70;;;;;;4492958;31;20031;-71
2022/11/08 13:03:05;;;;;;;;;;;21.10;64.90;;;;;;4492905;31;19977;-71
2022/11/08 13:05:33;;;;;;;;;;;21.10;64.90;;;;;;4493168;31;19981;-71
2022/11/08 13:08:11;;;;;;;;;;;21.10;65.00;;;;;;4493119;31;20006;-71
2022/11/08 13:10:42;;;;;;;;;;;21.00;65.00;;;;;;4493211;31;20410;-71
2022/11/08 13:13:10;;;;;;;;;;;21.00;65.10;;;;;;4493003;31;19984;-71
2022/11/08 13:15:56;;;;;;;;;;;21.00;65.20;;;;;;4492900;31;19987;-71
2022/11/08 13:18:22;;;;;;;;;;;21.00;65.10;;;;;;4492582;31;19997;-72
2022/11/08 13:20:48;;;;;;;;;;;21.00;65.10;;;;;;4492609;31;20029;-72
2022/11/08 13:23:19;;;;;;;;;;;21.00;65.10;;;;;;4492635;31;20362;-73
2022/11/08 13:25:53;;;;;;;;;;;21.00;65.20;;;;;;4492612;31;19969;-71
2022/11/08 13:28:37;;;;;;;;;;;21.10;65.20;;;;;;4492969;31;20029;-72
2022/11/08 13:31:22;;;;;;;;;;;21.10;65.20;;;;;;4492351;31;19982;-72
2022/11/08 13:33:59;;;;;;;;;;;21.10;65.20;;;;;;4492591;31;19977;-71
2022/11/08 13:36:32;;;;;;;;;;;21.10;65.20;;;;;;4492606;31;19978;-72
2022/11/08 13:39:10;;;;;;;;;;;21.10;65.20;;;;;;4492997;31;19978;-72
2022/11/08 13:41:56;;;;;;;;;;;21.10;65.20;;;;;;4492793;31;20401;-71
2022/11/08 13:44:40;;;;;;;;;;;21.10;65.30;;;;;;4492342;32;19993;-71
2022/11/08 13:47:26;;;;;;;;;;;21.10;65.30;;;;;;4492717;32;19965;-71
2022/11/08 13:50:12;;;;;;;;;;;21.10;65.30;;;;;;4492530;32;19985;-71
2022/11/08 13:52:43;;;;;;;;;;;21.10;65.40;;;;;;4492336;32;20418;-70
2022/11/08 13:55:28;;;;;;;;;;;21.10;65.40;;;;;;4492556;32;20024;-71
2022/11/08 13:57:56;;;;;;;;;;;21.10;65.50;;;;;;4492449;32;19989;-71
2022/11/08 14:00:34;;;;;;;;;;;21.00;65.60;;;;;;4492834;32;20011;-71
2022/11/08 14:03:00;;;;;;;;;;;21.00;65.70;;;;;;4492645;32;20379;-71
2022/11/08 14:05:27;;;;;;;;;;;21.00;65.80;;;;;;4492793;32;19965;-72
2022/11/08 14:07:58;;;;;;;;;;;20.90;65.80;;;;;;4492216;32;20080;-71
2022/11/08 14:10:26;;;;;;;;;;;20.90;65.90;;;;;;4492400;32;20000;-72
2022/11/08 14:12:52;;;;;;;;;;;20.90;66.00;;;;;;4492620;32;20055;-72
2022/11/08 14:15:22;;;;;;;;;;;20.90;66.00;;;;;;4492310;32;19965;-72
2022/11/08 14:17:55;;;;;;;;;;;21.00;66.00;;;;;;4478023;32;20091;-72
2022/11/08 14:20:30;;;;;;;;;;;21.00;66.10;;;;;;4492406;32;19981;-72
2022/11/08 14:22:56;;;;;;;;;;;21.00;66.10;;;;;;4492269;32;19985;-71
2022/11/08 14:25:22;;;;;;;;;;;21.00;66.10;;;;;;4492351;32;19981;-71
2022/11/08 14:27:48;;;;;;;;;;;21.00;66.10;;;;;;4492420;32;19980;-71
2022/11/08 14:30:15;;;;;;;;;;;21.00;66.10;;;;;;4492223;32;20099;-71
2022/11/08 14:32:41;;;;;;;;;;;21.00;66.10;;;;;;4492395;32;19977;-70
2022/11/08 14:35:21;;;;;;;;;;;21.00;66.20;;;;;;4493268;31;19962;-71
2022/11/08 14:37:47;;;;;;;;;;;21.00;66.20;;;;;;4495386;31;19989;-71
2022/11/08 14:40:20;;;;;;;;;;;20.90;66.20;;;;;;4495126;31;19969;-71
2022/11/08 14:42:47;;;;;;;;;;;20.90;66.30;;;;;;4495006;31;20021;-70